sensor_id;sensor_type;location;lat;lon;timestamp;P1;durP1;ratioP1;P2;durP2;ratioP2
74749;SDS011;63269;53.330;-6.288;2023-08-24T00:00:14;2.90;;;1.52;;
74749;SDS011;63269;53.330;-6.288;2023-08-24T00:02:39;3.33;;;1.60;;
74749;SDS011;63269;53.330;-6.288;2023-08-24T00:05:05;2.38;;;1.30;;
74749;SDS011;63269;53.330;-6.288;2023-08-24T00:07:30;4.53;;;1.70;;
74749;SDS011;63269;53.330;-6.288;2023-08-24T00:09:57;3.55;;;1.60;;
74749;SDS011;63269;53.330;-6.288;2023-08-24T00:12:25;2.70;;;1.55;;
74749;SDS011;63269;53.330;-6.288;2023-08-24T00:14:53;3.42;;;1.40;;
74749;SDS011;63269;53.330;-6.288;2023-08-24T00:17:18;3.55;;;1.50;;
74749;SDS011;63269;53.330;-6.288;2023-08-24T00:19:44;5.00;;;2.25;;
74749;SDS011;63269;53.330;-6.288;2023-08-24T00:22:11;4.65;;;1.92;;
74749;SDS011;63269;53.330;-6.288;2023-08-24T00:24:36;2.22;;;1.38;;
74749;SDS011;63269;53.330;-6.288;2023-08-24T00:27:02;4.00;;;1.85;;
74749;SDS011;63269;53.330;-6.288;2023-08-24T00:29:27;2.53;;;1.38;;
74749;SDS011;63269;53.330;-6.288;2023-08-24T00:31:53;2.60;;;1.40;;
74749;SDS011;63269;53.330;-6.288;2023-08-24T00:34:18;3.30;;;1.55;;
74749;SDS011;63269;53.330;-6.288;2023-08-24T00:36:43;6.22;;;1.95;;
74749;SDS011;63269;53.330;-6.288;2023-08-24T00:39:09;4.63;;;1.85;;
74749;SDS011;63269;53.330;-6.288;2023-08-24T00:41:35;3.50;;;1.38;;
74749;SDS011;63269;53.330;-6.288;2023-08-24T00:44:00;2.83;;;1.60;;
74749;SDS011;63269;53.330;-6.288;2023-08-24T00:46:27;2.78;;;1.45;;
74749;SDS011;63269;53.330;-6.288;2023-08-24T00:48:53;3.05;;;1.60;;
74749;SDS011;63269;53.330;-6.288;2023-08-24T00:51:22;3.75;;;1.73;;
74749;SDS011;63269;53.330;-6.288;2023-08-24T00:53:48;4.10;;;2.20;;
74749;SDS011;63269;53.330;-6.288;2023-08-24T00:56:14;3.90;;;1.83;;
74749;SDS011;63269;53.330;-6.288;2023-08-24T00:58:40;3.83;;;1.65;;
74749;SDS011;63269;53.330;-6.288;2023-08-24T01:01:05;2.17;;;1.13;;
74749;SDS011;63269;53.330;-6.288;2023-08-24T01:03:31;4.00;;;1.90;;
74749;SDS011;63269;53.330;-6.288;2023-08-24T01:05:57;3.40;;;1.58;;
74749;SDS011;63269;53.330;-6.288;2023-08-24T01:08:22;3.05;;;1.65;;
74749;SDS011;63269;53.330;-6.288;2023-08-24T01:13:16;4.00;;;2.28;;
74749;SDS011;63269;53.330;-6.288;2023-08-24T01:15:55;5.50;;;1.77;;
74749;SDS011;63269;53.330;-6.288;2023-08-24T01:18:25;3.67;;;1.75;;
74749;SDS011;63269;53.330;-6.288;2023-08-24T01:20:52;4.03;;;1.63;;
74749;SDS011;63269;53.330;-6.288;2023-08-24T01:26:06;5.82;;;1.90;;
74749;SDS011;63269;53.330;-6.288;2023-08-24T01:28:35;6.32;;;1.70;;
74749;SDS011;63269;53.330;-6.288;2023-08-24T01:31:03;6.47;;;2.75;;
74749;SDS011;63269;53.330;-6.288;2023-08-24T01:33:29;3.90;;;1.95;;
74749;SDS011;63269;53.330;-6.288;2023-08-24T01:35:54;3.70;;;1.60;;
74749;SDS011;63269;53.330;-6.288;2023-08-24T01:38:20;5.47;;;2.53;;
74749;SDS011;63269;53.330;-6.288;2023-08-24T01:40:48;4.03;;;1.67;;
74749;SDS011;63269;53.330;-6.288;2023-08-24T01:43:20;2.20;;;1.67;;
74749;SDS011;63269;53.330;-6.288;2023-08-24T01:45:49;3.67;;;1.80;;
74749;SDS011;63269;53.330;-6.288;2023-08-24T01:48:16;3.50;;;1.80;;
74749;SDS011;63269;53.330;-6.288;2023-08-24T01:50:42;4.03;;;1.67;;
74749;SDS011;63269;53.330;-6.288;2023-08-24T01:53:09;4.78;;;1.67;;
74749;SDS011;63269;53.330;-6.288;2023-08-24T01:55:34;3.92;;;1.95;;
74749;SDS011;63269;53.330;-6.288;2023-08-24T01:58:00;3.17;;;1.60;;
74749;SDS011;63269;53.330;-6.288;2023-08-24T02:00:25;3.22;;;1.48;;
74749;SDS011;63269;53.330;-6.288;2023-08-24T02:02:51;3.50;;;1.80;;
74749;SDS011;63269;53.330;-6.288;2023-08-24T02:05:17;4.45;;;1.83;;
74749;SDS011;63269;53.330;-6.288;2023-08-24T02:07:42;3.00;;;1.50;;
74749;SDS011;63269;53.330;-6.288;2023-08-24T02:10:08;4.10;;;1.75;;
74749;SDS011;63269;53.330;-6.288;2023-08-24T02:12:33;3.42;;;1.60;;
74749;SDS011;63269;53.330;-6.288;2023-08-24T02:14:59;4.50;;;1.50;;
74749;SDS011;63269;53.330;-6.288;2023-08-24T02:17:25;3.88;;;1.60;;
74749;SDS011;63269;53.330;-6.288;2023-08-24T02:19:51;4.10;;;1.75;;
74749;SDS011;63269;53.330;-6.288;2023-08-24T02:22:17;4.53;;;1.88;;
74749;SDS011;63269;53.330;-6.288;2023-08-24T02:24:42;4.10;;;1.98;;
74749;SDS011;63269;53.330;-6.288;2023-08-24T02:27:08;3.13;;;1.50;;
74749;SDS011;63269;53.330;-6.288;2023-08-24T02:29:33;2.00;;;1.60;;
74749;SDS011;63269;53.330;-6.288;2023-08-24T02:31:59;3.80;;;1.70;;
74749;SDS011;63269;53.330;-6.288;2023-08-24T02:34:24;2.75;;;1.48;;
74749;SDS011;63269;53.330;-6.288;2023-08-24T02:36:50;2.78;;;1.60;;
74749;SDS011;63269;53.330;-6.288;2023-08-24T02:39:15;2.22;;;1.38;;
74749;SDS011;63269;53.330;-6.288;2023-08-24T02:41:41;2.88;;;1.60;;
74749;SDS011;63269;53.330;-6.288;2023-08-24T02:44:06;2.75;;;1.63;;
74749;SDS011;63269;53.330;-6.288;2023-08-24T02:46:32;3.22;;;1.73;;
74749;SDS011;63269;53.330;-6.288;2023-08-24T02:48:57;4.72;;;1.75;;
74749;SDS011;63269;53.330;-6.288;2023-08-24T02:51:22;3.65;;;1.65;;
74749;SDS011;63269;53.330;-6.288;2023-08-24T02:53:49;4.57;;;1.75;;
74749;SDS011;63269;53.330;-6.288;2023-08-24T02:56:14;3.55;;;1.70;;
74749;SDS011;63269;53.330;-6.288;2023-08-24T02:58:40;3.22;;;1.50;;
74749;SDS011;63269;53.330;-6.288;2023-08-24T03:01:06;3.03;;;1.77;;
74749;SDS011;63269;53.330;-6.288;2023-08-24T03:03:32;3.22;;;1.60;;
74749;SDS011;63269;53.330;-6.288;2023-08-24T03:06:01;2.55;;;1.60;;
74749;SDS011;63269;53.330;-6.288;2023-08-24T03:08:28;4.45;;;1.80;;
74749;SDS011;63269;53.330;-6.288;2023-08-24T03:10:55;3.25;;;1.70;;
74749;SDS011;63269;53.330;-6.288;2023-08-24T03:13:20;3.00;;;1.23;;
74749;SDS011;63269;53.330;-6.288;2023-08-24T03:15:46;3.17;;;1.60;;
74749;SDS011;63269;53.330;-6.288;2023-08-24T03:18:11;4.53;;;1.70;;
74749;SDS011;63269;53.330;-6.288;2023-08-24T03:20:38;2.20;;;1.40;;
74749;SDS011;63269;53.330;-6.288;2023-08-24T03:23:04;4.72;;;2.38;;
74749;SDS011;63269;53.330;-6.288;2023-08-24T03:25:30;3.10;;;1.30;;
74749;SDS011;63269;53.330;-6.288;2023-08-24T03:27:56;3.55;;;1.90;;
74749;SDS011;63269;53.330;-6.288;2023-08-24T03:30:21;3.15;;;1.45;;
74749;SDS011;63269;53.330;-6.288;2023-08-24T03:32:47;5.90;;;2.20;;
74749;SDS011;63269;53.330;-6.288;2023-08-24T03:35:13;3.35;;;1.40;;
74749;SDS011;63269;53.330;-6.288;2023-08-24T03:37:40;3.03;;;1.50;;
74749;SDS011;63269;53.330;-6.288;2023-08-24T03:40:05;3.63;;;1.30;;
74749;SDS011;63269;53.330;-6.288;2023-08-24T03:42:31;3.85;;;1.55;;
74749;SDS011;63269;53.330;-6.288;2023-08-24T03:44:58;2.90;;;1.50;;
74749;SDS011;63269;53.330;-6.288;2023-08-24T03:47:24;3.60;;;1.30;;
74749;SDS011;63269;53.330;-6.288;2023-08-24T03:49:49;4.60;;;1.52;;
74749;SDS011;63269;53.330;-6.288;2023-08-24T03:52:15;4.15;;;1.77;;
74749;SDS011;63269;53.330;-6.288;2023-08-24T03:54:40;4.43;;;1.75;;
74749;SDS011;63269;53.330;-6.288;2023-08-24T03:57:06;2.85;;;1.40;;
74749;SDS011;63269;53.330;-6.288;2023-08-24T03:59:31;3.55;;;1.67;;
74749;SDS011;63269;53.330;-6.288;2023-08-24T04:01:57;3.50;;;1.48;;
74749;SDS011;63269;53.330;-6.288;2023-08-24T04:04:26;2.88;;;1.65;;
74749;SDS011;63269;53.330;-6.288;2023-08-24T04:06:52;3.22;;;1.52;;
74749;SDS011;63269;53.330;-6.288;2023-08-24T04:09:17;2.30;;;1.20;;
74749;SDS011;63269;53.330;-6.288;2023-08-24T04:11:43;4.00;;;1.70;;
74749;SDS011;63269;53.330;-6.288;2023-08-24T04:14:08;4.70;;;1.60;;
74749;SDS011;63269;53.330;-6.288;2023-08-24T04:16:33;2.63;;;1.50;;
74749;SDS011;63269;53.330;-6.288;2023-08-24T04:18:59;3.60;;;1.40;;
74749;SDS011;63269;53.330;-6.288;2023-08-24T04:21:24;2.03;;;1.48;;
74749;SDS011;63269;53.330;-6.288;2023-08-24T04:23:49;2.60;;;1.50;;
74749;SDS011;63269;53.330;-6.288;2023-08-24T04:26:15;4.05;;;1.40;;
74749;SDS011;63269;53.330;-6.288;2023-08-24T04:28:41;2.92;;;1.52;;
74749;SDS011;63269;53.330;-6.288;2023-08-24T04:31:06;2.67;;;1.40;;
74749;SDS011;63269;53.330;-6.288;2023-08-24T04:33:32;2.92;;;1.35;;
74749;SDS011;63269;53.330;-6.288;2023-08-24T04:35:58;2.20;;;1.20;;
74749;SDS011;63269;53.330;-6.288;2023-08-24T04:38:23;2.72;;;1.67;;
74749;SDS011;63269;53.330;-6.288;2023-08-24T04:40:52;3.17;;;1.45;;
74749;SDS011;63269;53.330;-6.288;2023-08-24T04:43:21;2.90;;;1.55;;
74749;SDS011;63269;53.330;-6.288;2023-08-24T04:45:49;2.17;;;1.63;;
74749;SDS011;63269;53.330;-6.288;2023-08-24T04:48:17;3.05;;;1.40;;
74749;SDS011;63269;53.330;-6.288;2023-08-24T04:50:46;2.03;;;1.25;;
74749;SDS011;63269;53.330;-6.288;2023-08-24T04:53:13;2.47;;;1.30;;
74749;SDS011;63269;53.330;-6.288;2023-08-24T04:55:40;5.05;;;1.75;;
74749;SDS011;63269;53.330;-6.288;2023-08-24T04:58:06;2.85;;;1.27;;
74749;SDS011;63269;53.330;-6.288;2023-08-24T05:00:32;3.17;;;1.50;;
74749;SDS011;63269;53.330;-6.288;2023-08-24T05:02:58;3.15;;;1.48;;
74749;SDS011;63269;53.330;-6.288;2023-08-24T05:05:24;3.92;;;1.58;;
74749;SDS011;63269;53.330;-6.288;2023-08-24T05:07:49;3.10;;;1.30;;
74749;SDS011;63269;53.330;-6.288;2023-08-24T05:10:15;2.45;;;1.30;;
74749;SDS011;63269;53.330;-6.288;2023-08-24T05:12:40;3.22;;;1.42;;
74749;SDS011;63269;53.330;-6.288;2023-08-24T05:15:05;2.58;;;1.20;;
74749;SDS011;63269;53.330;-6.288;2023-08-24T05:17:31;2.28;;;1.23;;
74749;SDS011;63269;53.330;-6.288;2023-08-24T05:19:58;5.28;;;1.92;;
74749;SDS011;63269;53.330;-6.288;2023-08-24T05:22:24;2.70;;;1.30;;
74749;SDS011;63269;53.330;-6.288;2023-08-24T05:24:49;2.17;;;1.40;;
74749;SDS011;63269;53.330;-6.288;2023-08-24T05:27:15;3.97;;;1.58;;
74749;SDS011;63269;53.330;-6.288;2023-08-24T05:29:43;1.85;;;1.10;;
74749;SDS011;63269;53.330;-6.288;2023-08-24T05:32:08;2.20;;;1.13;;
74749;SDS011;63269;53.330;-6.288;2023-08-24T05:34:34;2.47;;;1.30;;
74749;SDS011;63269;53.330;-6.288;2023-08-24T05:36:59;2.88;;;1.23;;
74749;SDS011;63269;53.330;-6.288;2023-08-24T05:39:25;3.58;;;1.30;;
74749;SDS011;63269;53.330;-6.288;2023-08-24T05:41:50;4.10;;;1.70;;
74749;SDS011;63269;53.330;-6.288;2023-08-24T05:44:17;3.30;;;1.40;;
74749;SDS011;63269;53.330;-6.288;2023-08-24T05:46:43;4.20;;;1.80;;
74749;SDS011;63269;53.330;-6.288;2023-08-24T05:49:08;3.08;;;1.20;;
74749;SDS011;63269;53.330;-6.288;2023-08-24T05:51:34;3.55;;;1.48;;
74749;SDS011;63269;53.330;-6.288;2023-08-24T05:54:00;1.83;;;1.30;;
74749;SDS011;63269;53.330;-6.288;2023-08-24T05:56:25;3.60;;;1.77;;
74749;SDS011;63269;53.330;-6.288;2023-08-24T05:58:51;5.97;;;1.90;;
74749;SDS011;63269;53.330;-6.288;2023-08-24T06:01:16;3.85;;;1.50;;
74749;SDS011;63269;53.330;-6.288;2023-08-24T06:03:42;5.22;;;1.48;;
74749;SDS011;63269;53.330;-6.288;2023-08-24T06:06:07;2.88;;;1.40;;
74749;SDS011;63269;53.330;-6.288;2023-08-24T06:08:34;5.57;;;1.60;;
74749;SDS011;63269;53.330;-6.288;2023-08-24T06:10:59;3.58;;;1.63;;
74749;SDS011;63269;53.330;-6.288;2023-08-24T06:13:25;3.83;;;1.50;;
74749;SDS011;63269;53.330;-6.288;2023-08-24T06:15:50;4.50;;;1.48;;
74749;SDS011;63269;53.330;-6.288;2023-08-24T06:18:16;3.10;;;1.40;;
74749;SDS011;63269;53.330;-6.288;2023-08-24T06:20:41;3.28;;;1.38;;
74749;SDS011;63269;53.330;-6.288;2023-08-24T06:23:07;2.13;;;1.20;;
74749;SDS011;63269;53.330;-6.288;2023-08-24T06:25:33;3.28;;;1.35;;
74749;SDS011;63269;53.330;-6.288;2023-08-24T06:27:59;3.50;;;1.50;;
74749;SDS011;63269;53.330;-6.288;2023-08-24T06:30:25;2.60;;;1.15;;
74749;SDS011;63269;53.330;-6.288;2023-08-24T06:32:50;3.05;;;1.42;;
74749;SDS011;63269;53.330;-6.288;2023-08-24T06:35:16;3.50;;;1.38;;
74749;SDS011;63269;53.330;-6.288;2023-08-24T06:37:42;4.68;;;1.35;;
74749;SDS011;63269;53.330;-6.288;2023-08-24T06:40:08;4.18;;;2.00;;
74749;SDS011;63269;53.330;-6.288;2023-08-24T06:42:34;4.70;;;2.05;;
74749;SDS011;63269;53.330;-6.288;2023-08-24T06:44:59;2.40;;;1.48;;
74749;SDS011;63269;53.330;-6.288;2023-08-24T06:47:25;4.00;;;1.75;;
74749;SDS011;63269;53.330;-6.288;2023-08-24T06:49:50;3.38;;;1.60;;
74749;SDS011;63269;53.330;-6.288;2023-08-24T06:52:16;3.88;;;1.73;;
74749;SDS011;63269;53.330;-6.288;2023-08-24T06:54:44;3.83;;;1.40;;
74749;SDS011;63269;53.330;-6.288;2023-08-24T06:57:10;3.40;;;1.60;;
74749;SDS011;63269;53.330;-6.288;2023-08-24T06:59:35;3.22;;;1.42;;
74749;SDS011;63269;53.330;-6.288;2023-08-24T07:02:00;3.92;;;2.00;;
74749;SDS011;63269;53.330;-6.288;2023-08-24T07:04:26;2.20;;;1.60;;
74749;SDS011;63269;53.330;-6.288;2023-08-24T07:06:53;3.45;;;2.00;;
74749;SDS011;63269;53.330;-6.288;2023-08-24T07:09:19;5.22;;;1.73;;
74749;SDS011;63269;53.330;-6.288;2023-08-24T07:11:44;3.38;;;1.60;;
74749;SDS011;63269;53.330;-6.288;2023-08-24T07:14:09;2.38;;;1.33;;
74749;SDS011;63269;53.330;-6.288;2023-08-24T07:16:35;3.00;;;1.30;;
74749;SDS011;63269;53.330;-6.288;2023-08-24T07:19:00;2.67;;;1.63;;
74749;SDS011;63269;53.330;-6.288;2023-08-24T07:21:27;4.10;;;1.52;;
74749;SDS011;63269;53.330;-6.288;2023-08-24T07:23:52;3.20;;;1.70;;
74749;SDS011;63269;53.330;-6.288;2023-08-24T07:26:18;2.80;;;1.73;;
74749;SDS011;63269;53.330;-6.288;2023-08-24T07:28:44;5.05;;;2.25;;
74749;SDS011;63269;53.330;-6.288;2023-08-24T07:31:09;3.97;;;1.83;;
74749;SDS011;63269;53.330;-6.288;2023-08-24T07:33:36;4.40;;;1.60;;
74749;SDS011;63269;53.330;-6.288;2023-08-24T07:36:04;4.32;;;1.77;;
74749;SDS011;63269;53.330;-6.288;2023-08-24T07:38:30;3.97;;;1.95;;
74749;SDS011;63269;53.330;-6.288;2023-08-24T07:40:56;4.80;;;1.83;;
74749;SDS011;63269;53.330;-6.288;2023-08-24T07:43:22;3.22;;;1.92;;
74749;SDS011;63269;53.330;-6.288;2023-08-24T07:45:48;4.10;;;2.30;;
74749;SDS011;63269;53.330;-6.288;2023-08-24T07:48:13;4.93;;;2.03;;
74749;SDS011;63269;53.330;-6.288;2023-08-24T07:50:40;3.53;;;2.28;;
74749;SDS011;63269;53.330;-6.288;2023-08-24T07:53:05;4.68;;;2.33;;
74749;SDS011;63269;53.330;-6.288;2023-08-24T07:55:31;4.80;;;1.92;;
74749;SDS011;63269;53.330;-6.288;2023-08-24T07:57:56;3.33;;;2.17;;
74749;SDS011;63269;53.330;-6.288;2023-08-24T08:00:21;3.50;;;1.95;;
74749;SDS011;63269;53.330;-6.288;2023-08-24T08:02:50;3.63;;;1.50;;
74749;SDS011;63269;53.330;-6.288;2023-08-24T08:05:16;4.03;;;2.20;;
74749;SDS011;63269;53.330;-6.288;2023-08-24T08:07:42;4.28;;;2.10;;
74749;SDS011;63269;53.330;-6.288;2023-08-24T08:10:08;4.00;;;1.90;;
74749;SDS011;63269;53.330;-6.288;2023-08-24T08:12:34;3.60;;;2.10;;
74749;SDS011;63269;53.330;-6.288;2023-08-24T08:15:00;4.97;;;2.25;;
74749;SDS011;63269;53.330;-6.288;2023-08-24T08:17:26;3.60;;;2.22;;
74749;SDS011;63269;53.330;-6.288;2023-08-24T08:19:55;4.10;;;1.90;;
74749;SDS011;63269;53.330;-6.288;2023-08-24T08:22:21;7.18;;;1.83;;
74749;SDS011;63269;53.330;-6.288;2023-08-24T08:24:47;5.45;;;1.98;;
74749;SDS011;63269;53.330;-6.288;2023-08-24T08:27:12;4.32;;;1.88;;
74749;SDS011;63269;53.330;-6.288;2023-08-24T08:29:38;4.53;;;1.80;;
74749;SDS011;63269;53.330;-6.288;2023-08-24T08:32:04;4.30;;;2.20;;
74749;SDS011;63269;53.330;-6.288;2023-08-24T08:34:30;3.97;;;1.83;;
74749;SDS011;63269;53.330;-6.288;2023-08-24T08:36:56;9.93;;;1.90;;
74749;SDS011;63269;53.330;-6.288;2023-08-24T08:39:22;2.83;;;1.73;;
74749;SDS011;63269;53.330;-6.288;2023-08-24T08:41:47;3.88;;;1.73;;
74749;SDS011;63269;53.330;-6.288;2023-08-24T08:44:14;5.53;;;1.80;;
74749;SDS011;63269;53.330;-6.288;2023-08-24T08:46:43;3.78;;;1.70;;
74749;SDS011;63269;53.330;-6.288;2023-08-24T08:49:08;7.25;;;1.80;;
74749;SDS011;63269;53.330;-6.288;2023-08-24T08:51:38;5.65;;;2.05;;
74749;SDS011;63269;53.330;-6.288;2023-08-24T08:54:05;4.87;;;1.33;;
74749;SDS011;63269;53.330;-6.288;2023-08-24T08:56:31;5.80;;;2.03;;
74749;SDS011;63269;53.330;-6.288;2023-08-24T08:58:57;4.38;;;2.15;;
74749;SDS011;63269;53.330;-6.288;2023-08-24T09:01:24;5.60;;;1.95;;
74749;SDS011;63269;53.330;-6.288;2023-08-24T09:03:50;6.13;;;1.85;;
74749;SDS011;63269;53.330;-6.288;2023-08-24T09:06:16;5.18;;;1.77;;
74749;SDS011;63269;53.330;-6.288;2023-08-24T09:08:42;6.75;;;2.00;;
74749;SDS011;63269;53.330;-6.288;2023-08-24T09:11:09;5.90;;;1.50;;
74749;SDS011;63269;53.330;-6.288;2023-08-24T09:13:35;7.07;;;2.20;;
74749;SDS011;63269;53.330;-6.288;2023-08-24T09:16:04;7.15;;;1.77;;
74749;SDS011;63269;53.330;-6.288;2023-08-24T09:18:35;4.13;;;2.00;;
74749;SDS011;63269;53.330;-6.288;2023-08-24T09:21:07;8.05;;;1.98;;
74749;SDS011;63269;53.330;-6.288;2023-08-24T09:23:33;4.78;;;2.10;;
74749;SDS011;63269;53.330;-6.288;2023-08-24T09:25:59;5.88;;;1.77;;
74749;SDS011;63269;53.330;-6.288;2023-08-24T09:28:24;14.18;;;2.00;;
74749;SDS011;63269;53.330;-6.288;2023-08-24T09:30:52;3.17;;;1.02;;
74749;SDS011;63269;53.330;-6.288;2023-08-24T09:33:19;4.57;;;1.95;;
74749;SDS011;63269;53.330;-6.288;2023-08-24T09:35:51;3.03;;;1.55;;
74749;SDS011;63269;53.330;-6.288;2023-08-24T09:38:18;3.72;;;1.70;;
74749;SDS011;63269;53.330;-6.288;2023-08-24T09:40:54;4.53;;;1.75;;
74749;SDS011;63269;53.330;-6.288;2023-08-24T09:43:20;3.65;;;2.03;;
74749;SDS011;63269;53.330;-6.288;2023-08-24T09:45:50;7.20;;;1.55;;
74749;SDS011;63269;53.330;-6.288;2023-08-24T09:48:16;4.83;;;1.17;;
74749;SDS011;63269;53.330;-6.288;2023-08-24T09:50:47;4.53;;;1.10;;
74749;SDS011;63269;53.330;-6.288;2023-08-24T09:53:18;3.40;;;1.30;;
74749;SDS011;63269;53.330;-6.288;2023-08-24T09:55:51;6.85;;;2.50;;
74749;SDS011;63269;53.330;-6.288;2023-08-24T09:58:20;3.75;;;1.65;;
74749;SDS011;63269;53.330;-6.288;2023-08-24T10:00:46;4.45;;;1.45;;
74749;SDS011;63269;53.330;-6.288;2023-08-24T10:03:15;2.47;;;1.30;;
74749;SDS011;63269;53.330;-6.288;2023-08-24T10:05:45;2.40;;;1.65;;
74749;SDS011;63269;53.330;-6.288;2023-08-24T10:08:12;3.20;;;0.95;;
74749;SDS011;63269;53.330;-6.288;2023-08-24T10:10:39;4.75;;;1.20;;
74749;SDS011;63269;53.330;-6.288;2023-08-24T10:13:29;3.92;;;1.67;;
74749;SDS011;63269;53.330;-6.288;2023-08-24T10:15:59;4.40;;;1.42;;
74749;SDS011;63269;53.330;-6.288;2023-08-24T10:18:25;3.20;;;1.00;;
74749;SDS011;63269;53.330;-6.288;2023-08-24T10:20:52;2.22;;;1.13;;
74749;SDS011;63269;53.330;-6.288;2023-08-24T10:23:17;4.68;;;1.38;;
74749;SDS011;63269;53.330;-6.288;2023-08-24T10:25:46;2.42;;;1.38;;
74749;SDS011;63269;53.330;-6.288;2023-08-24T10:28:11;2.28;;;0.90;;
74749;SDS011;63269;53.330;-6.288;2023-08-24T10:30:38;3.85;;;1.10;;
74749;SDS011;63269;53.330;-6.288;2023-08-24T10:33:05;3.13;;;1.35;;
74749;SDS011;63269;53.330;-6.288;2023-08-24T10:35:31;3.63;;;1.00;;
74749;SDS011;63269;53.330;-6.288;2023-08-24T10:38:00;3.03;;;0.90;;
74749;SDS011;63269;53.330;-6.288;2023-08-24T10:40:32;1.95;;;0.90;;
74749;SDS011;63269;53.330;-6.288;2023-08-24T10:43:01;2.38;;;1.20;;
74749;SDS011;63269;53.330;-6.288;2023-08-24T10:48:14;2.50;;;1.02;;
74749;SDS011;63269;53.330;-6.288;2023-08-24T10:50:40;2.42;;;1.08;;
74749;SDS011;63269;53.330;-6.288;2023-08-24T10:53:05;2.30;;;1.10;;
74749;SDS011;63269;53.330;-6.288;2023-08-24T10:55:35;4.22;;;1.27;;
74749;SDS011;63269;53.330;-6.288;2023-08-24T10:58:02;3.22;;;1.25;;
74749;SDS011;63269;53.330;-6.288;2023-08-24T11:00:31;4.40;;;1.27;;
74749;SDS011;63269;53.330;-6.288;2023-08-24T11:02:57;2.45;;;0.73;;
74749;SDS011;63269;53.330;-6.288;2023-08-24T11:07:58;2.78;;;1.10;;
74749;SDS011;63269;53.330;-6.288;2023-08-24T11:10:25;2.97;;;1.00;;
74749;SDS011;63269;53.330;-6.288;2023-08-24T11:20:37;2.42;;;0.98;;
74749;SDS011;63269;53.330;-6.288;2023-08-24T11:23:02;2.90;;;1.05;;
74749;SDS011;63269;53.330;-6.288;2023-08-24T11:25:28;4.85;;;1.40;;
74749;SDS011;63269;53.330;-6.288;2023-08-24T11:27:56;1.65;;;1.10;;
74749;SDS011;63269;53.330;-6.288;2023-08-24T11:30:22;4.22;;;1.05;;
74749;SDS011;63269;53.330;-6.288;2023-08-24T11:32:51;3.65;;;0.90;;
74749;SDS011;63269;53.330;-6.288;2023-08-24T11:35:18;2.20;;;1.20;;
74749;SDS011;63269;53.330;-6.288;2023-08-24T11:37:43;2.15;;;1.00;;
74749;SDS011;63269;53.330;-6.288;2023-08-24T11:40:16;2.65;;;1.00;;
74749;SDS011;63269;53.330;-6.288;2023-08-24T11:42:42;1.95;;;0.93;;
74749;SDS011;63269;53.330;-6.288;2023-08-24T11:45:11;2.25;;;0.70;;
74749;SDS011;63269;53.330;-6.288;2023-08-24T11:47:41;2.92;;;0.80;;
74749;SDS011;63269;53.330;-6.288;2023-08-24T11:50:07;2.40;;;0.70;;
74749;SDS011;63269;53.330;-6.288;2023-08-24T11:52:38;2.30;;;1.27;;
74749;SDS011;63269;53.330;-6.288;2023-08-24T11:55:04;2.60;;;0.80;;
74749;SDS011;63269;53.330;-6.288;2023-08-24T11:57:33;2.70;;;0.70;;
74749;SDS011;63269;53.330;-6.288;2023-08-24T11:59:58;2.25;;;1.02;;
74749;SDS011;63269;53.330;-6.288;2023-08-24T12:02:24;1.40;;;0.90;;
74749;SDS011;63269;53.330;-6.288;2023-08-24T12:04:50;2.15;;;0.85;;
74749;SDS011;63269;53.330;-6.288;2023-08-24T12:07:16;3.10;;;1.50;;
74749;SDS011;63269;53.330;-6.288;2023-08-24T12:09:42;5.43;;;1.02;;
74749;SDS011;63269;53.330;-6.288;2023-08-24T12:12:16;3.38;;;1.15;;
74749;SDS011;63269;53.330;-6.288;2023-08-24T12:14:44;1.90;;;1.00;;
74749;SDS011;63269;53.330;-6.288;2023-08-24T12:17:10;1.75;;;0.90;;
74749;SDS011;63269;53.330;-6.288;2023-08-24T12:19:36;1.83;;;0.70;;
74749;SDS011;63269;53.330;-6.288;2023-08-24T12:22:01;2.10;;;0.70;;
74749;SDS011;63269;53.330;-6.288;2023-08-24T12:24:27;2.00;;;0.80;;
74749;SDS011;63269;53.330;-6.288;2023-08-24T12:26:56;1.40;;;0.75;;
74749;SDS011;63269;53.330;-6.288;2023-08-24T12:29:27;2.90;;;0.55;;
74749;SDS011;63269;53.330;-6.288;2023-08-24T12:31:56;3.30;;;0.70;;
74749;SDS011;63269;53.330;-6.288;2023-08-24T12:36:48;1.40;;;0.82;;
74749;SDS011;63269;53.330;-6.288;2023-08-24T12:39:14;1.77;;;0.88;;
74749;SDS011;63269;53.330;-6.288;2023-08-24T12:41:40;2.58;;;0.70;;
74749;SDS011;63269;53.330;-6.288;2023-08-24T12:44:06;1.83;;;0.70;;
74749;SDS011;63269;53.330;-6.288;2023-08-24T12:46:34;3.45;;;0.98;;
74749;SDS011;63269;53.330;-6.288;2023-08-24T12:49:01;1.48;;;0.80;;
74749;SDS011;63269;53.330;-6.288;2023-08-24T12:51:27;1.58;;;0.63;;
74749;SDS011;63269;53.330;-6.288;2023-08-24T12:53:52;1.27;;;0.68;;
74749;SDS011;63269;53.330;-6.288;2023-08-24T12:56:17;1.23;;;0.60;;
74749;SDS011;63269;53.330;-6.288;2023-08-24T12:58:43;2.20;;;1.08;;
74749;SDS011;63269;53.330;-6.288;2023-08-24T13:01:08;1.95;;;0.70;;
74749;SDS011;63269;53.330;-6.288;2023-08-24T13:03:36;1.95;;;0.70;;
74749;SDS011;63269;53.330;-6.288;2023-08-24T13:06:01;1.20;;;0.60;;
74749;SDS011;63269;53.330;-6.288;2023-08-24T13:08:27;1.30;;;0.70;;
74749;SDS011;63269;53.330;-6.288;2023-08-24T13:10:52;2.50;;;0.70;;
74749;SDS011;63269;53.330;-6.288;2023-08-24T13:13:18;2.22;;;0.75;;
74749;SDS011;63269;53.330;-6.288;2023-08-24T13:15:47;1.50;;;0.50;;
74749;SDS011;63269;53.330;-6.288;2023-08-24T13:18:14;1.48;;;0.60;;
74749;SDS011;63269;53.330;-6.288;2023-08-24T13:20:40;1.58;;;0.63;;
74749;SDS011;63269;53.330;-6.288;2023-08-24T13:23:05;2.92;;;0.70;;
74749;SDS011;63269;53.330;-6.288;2023-08-24T13:25:31;1.55;;;0.70;;
74749;SDS011;63269;53.330;-6.288;2023-08-24T13:27:57;1.45;;;0.60;;
74749;SDS011;63269;53.330;-6.288;2023-08-24T13:30:22;2.45;;;0.70;;
74749;SDS011;63269;53.330;-6.288;2023-08-24T13:32:48;3.97;;;0.80;;
74749;SDS011;63269;53.330;-6.288;2023-08-24T13:35:13;1.48;;;0.60;;
74749;SDS011;63269;53.330;-6.288;2023-08-24T13:37:38;1.05;;;0.60;;
74749;SDS011;63269;53.330;-6.288;2023-08-24T13:40:04;1.95;;;0.73;;
74749;SDS011;63269;53.330;-6.288;2023-08-24T13:42:30;1.13;;;0.60;;
74749;SDS011;63269;53.330;-6.288;2023-08-24T13:44:55;1.95;;;0.80;;
74749;SDS011;63269;53.330;-6.288;2023-08-24T13:47:21;1.95;;;0.63;;
74749;SDS011;63269;53.330;-6.288;2023-08-24T13:49:47;1.42;;;0.70;;
74749;SDS011;63269;53.330;-6.288;2023-08-24T13:52:13;2.00;;;0.85;;
74749;SDS011;63269;53.330;-6.288;2023-08-24T13:54:38;2.38;;;0.60;;
74749;SDS011;63269;53.330;-6.288;2023-08-24T13:57:04;2.55;;;0.57;;
74749;SDS011;63269;53.330;-6.288;2023-08-24T13:59:30;2.50;;;0.80;;
74749;SDS011;63269;53.330;-6.288;2023-08-24T14:01:55;2.05;;;0.68;;
74749;SDS011;63269;53.330;-6.288;2023-08-24T14:04:21;1.63;;;0.40;;
74749;SDS011;63269;53.330;-6.288;2023-08-24T14:06:46;2.42;;;0.52;;
74749;SDS011;63269;53.330;-6.288;2023-08-24T14:09:13;3.55;;;1.23;;
74749;SDS011;63269;53.330;-6.288;2023-08-24T14:11:40;0.93;;;0.45;;
74749;SDS011;63269;53.330;-6.288;2023-08-24T14:14:06;1.42;;;0.50;;
74749;SDS011;63269;53.330;-6.288;2023-08-24T14:16:31;1.58;;;0.85;;
74749;SDS011;63269;53.330;-6.288;2023-08-24T14:18:56;2.63;;;0.85;;
74749;SDS011;63269;53.330;-6.288;2023-08-24T14:21:22;1.35;;;0.68;;
74749;SDS011;63269;53.330;-6.288;2023-08-24T14:23:50;1.95;;;0.68;;
74749;SDS011;63269;53.330;-6.288;2023-08-24T14:26:16;1.45;;;0.50;;
74749;SDS011;63269;53.330;-6.288;2023-08-24T14:28:52;1.23;;;0.63;;
74749;SDS011;63269;53.330;-6.288;2023-08-24T14:31:23;0.88;;;0.50;;
74749;SDS011;63269;53.330;-6.288;2023-08-24T14:33:49;1.15;;;0.60;;
74749;SDS011;63269;53.330;-6.288;2023-08-24T14:36:16;0.85;;;0.30;;
74749;SDS011;63269;53.330;-6.288;2023-08-24T14:38:42;1.60;;;0.60;;
74749;SDS011;63269;53.330;-6.288;2023-08-24T14:41:08;1.88;;;0.98;;
74749;SDS011;63269;53.330;-6.288;2023-08-24T14:43:34;1.45;;;0.50;;
74749;SDS011;63269;53.330;-6.288;2023-08-24T14:46:00;1.20;;;0.50;;
74749;SDS011;63269;53.330;-6.288;2023-08-24T14:48:25;0.82;;;0.50;;